Time;durP1;ratioP1;P1;durP2;ratioP2;P2;SDS_P1;SDS_P2;PMS_P1;PMS_P2;Temp;Humidity;BMP_temperature;BMP_pressure;BME280_temperature;BME280_humidity;BME280_pressure;Samples;Min_cycle;Max_cycle;Signal;HPM_P1;HPM_P2
2022/09/22 00:00:54;;;;;;;;;;;;;;;12.84;100.00;98665.53;5070928;28;20379;-89
2022/09/22 00:03:21;;;;;;;;;;;;;;;12.81;100.00;98663.38;5067143;28;20023;-89
2022/09/22 00:05:47;;;;;;;;;;;;;;;12.79;100.00;98654.00;5078145;28;20310;-88
2022/09/22 00:08:13;;;;;;;;;;;;;;;12.78;100.00;98655.06;5081592;28;20426;-89
2022/09/22 00:10:40;;;;;;;;;;;;;;;12.77;100.00;98646.22;5063543;28;20015;-90
2022/09/22 00:13:08;;;;;;;;;;;;;;;12.79;100.00;98646.75;5066818;28;19979;-88
2022/09/22 00:15:34;;;;;;;;;;;;;;;12.83;100.00;98658.59;5069678;28;19925;-89
2022/09/22 00:18:00;;;;;;;;;;;;;;;12.77;100.00;98650.78;5046482;28;20019;-88
2022/09/22 00:20:26;;;;;;;;;;;;;;;12.72;100.00;98648.84;5042752;28;19928;-90
2022/09/22 00:22:53;;;;;;;;;;;;;;;12.66;100.00;98638.34;5066889;28;19924;-90
2022/09/22 00:25:19;;;;;;;;;;;;;;;12.35;100.00;98651.53;5071091;28;20000;-89
2022/09/22 00:27:46;;;;;;;;;;;;;;;12.15;100.00;98642.53;5075051;28;19935;-90
2022/09/22 00:30:14;;;;;;;;;;;;;;;12.14;100.00;98648.94;5062405;28;20314;-89
2022/09/22 00:32:40;;;;;;;;;;;;;;;12.13;100.00;98645.47;5074989;28;19971;-90
2022/09/22 00:35:07;;;;;;;;;;;;;;;12.26;100.00;98650.41;5072052;28;20023;-90
2022/09/22 00:37:34;;;;;;;;;;;;;;;12.32;100.00;98648.56;5051042;28;19968;-90
2022/09/22 00:40:00;;;;;;;;;;;;;;;12.23;100.00;98650.09;5077559;28;19928;-89
2022/09/22 00:42:27;;;;;;;;;;;;;;;12.15;100.00;98647.91;5050073;28;19928;-89
2022/09/22 00:44:54;;;;;;;;;;;;;;;12.11;100.00;98646.78;5071731;28;19931;-89
2022/09/22 00:47:34;;;;;;;;;;;;;;;12.25;100.00;98648.00;5070859;28;20038;-88
2022/09/22 00:50:05;;;;;;;;;;;;;;;12.35;100.00;98650.72;5069324;28;19928;-89
2022/09/22 00:52:35;;;;;;;;;;;;;;;12.39;100.00;98647.28;5056443;28;19954;-90
2022/09/22 00:55:05;;;;;;;;;;;;;;;12.37;100.00;98635.22;5063878;28;20545;-88
2022/09/22 00:57:33;;;;;;;;;;;;;;;12.33;100.00;98647.50;5062917;28;20024;-89
2022/09/22 01:00:01;;;;;;;;;;;;;;;12.17;100.00;98645.75;5093800;28;20310;-88
2022/09/22 01:02:28;;;;;;;;;;;;;;;12.19;100.00;98649.00;5062793;28;19928;-89
2022/09/22 01:04:56;;;;;;;;;;;;;;;12.11;100.00;98652.94;5074667;28;20083;-89
2022/09/22 01:07:26;;;;;;;;;;;;;;;12.01;100.00;98650.19;5070848;28;19928;-89
2022/09/22 01:09:54;;;;;;;;;;;;;;;12.09;100.00;98644.38;5057969;28;19924;-87
2022/09/22 01:12:21;;;;;;;;;;;;;;;11.98;100.00;98637.28;5053147;28;20011;-90
2022/09/22 01:14:57;;;;;;;;;;;;;;;12.09;100.00;98638.22;5046975;28;19924;-88
2022/09/22 01:17:30;;;;;;;;;;;;;;;12.03;100.00;98632.00;5065043;28;20023;-89
2022/09/22 01:20:17;;;;;;;;;;;;;;;12.15;100.00;98637.19;5049874;28;19925;-88
2022/09/22 01:22:56;;;;;;;;;;;;;;;12.10;100.00;98635.25;5076246;28;19938;-89
2022/09/22 01:25:36;;;;;;;;;;;;;;;12.12;100.00;98638.50;5087374;28;20449;-89
2022/09/22 01:28:16;;;;;;;;;;;;;;;12.19;100.00;98631.06;5046213;28;20031;-88
2022/09/22 01:30:46;;;;;;;;;;;;;;;12.19;100.00;98631.06;5063094;28;20383;-89
2022/09/22 01:33:20;;;;;;;;;;;;;;;11.83;100.00;98627.25;5041883;28;19934;-89
2022/09/22 01:35:57;;;;;;;;;;;;;;;11.90;100.00;98625.19;5067550;28;19928;-90
2022/09/22 01:38:29;;;;;;;;;;;;;;;11.90;100.00;98632.41;5085123;28;19934;-88
2022/09/22 01:40:58;;;;;;;;;;;;;;;11.81;100.00;98634.75;5050303;28;19928;-89
2022/09/22 01:43:32;;;;;;;;;;;;;;;11.40;100.00;98630.00;5043541;28;19983;-90
2022/09/22 01:46:02;;;;;;;;;;;;;;;11.61;100.00;98637.16;5065858;28;20026;-90
2022/09/22 01:48:29;;;;;;;;;;;;;;;11.52;100.00;98633.34;5086981;28;19924;-90
2022/09/22 01:50:59;;;;;;;;;;;;;;;11.38;100.00;98638.28;5088984;28;19924;-88
2022/09/22 01:53:30;;;;;;;;;;;;;;;11.20;100.00;98629.78;5063725;28;19963;-90
2022/09/22 01:56:02;;;;;;;;;;;;;;;11.33;100.00;98632.03;5068344;28;19981;-89
2022/09/22 01:58:29;;;;;;;;;;;;;;;11.07;100.00;98638.97;5072335;28;19925;-89
2022/09/22 02:00:59;;;;;;;;;;;;;;;11.06;100.00;98633.84;5050999;28;20768;-89
2022/09/22 02:03:30;;;;;;;;;;;;;;;11.24;100.00;98625.53;5065811;28;19924;-89
2022/09/22 02:06:00;;;;;;;;;;;;;;;11.42;100.00;98622.50;5060660;28;20015;-89
2022/09/22 02:08:28;;;;;;;;;;;;;;;11.60;100.00;98630.22;5051127;28;19928;-88
2022/09/22 02:10:57;;;;;;;;;;;;;;;11.69;100.00;98622.56;5072349;28;19935;-89
2022/09/22 02:13:24;;;;;;;;;;;;;;;11.65;100.00;98622.25;5056134;28;19935;-89
2022/09/22 02:16:02;;;;;;;;;;;;;;;11.44;100.00;98623.09;5081138;28;19942;-89
2022/09/22 02:18:32;;;;;;;;;;;;;;;11.56;100.00;98618.41;5067600;28;20418;-86
2022/09/22 02:20:58;;;;;;;;;;;;;;;11.68;100.00;98608.34;5048649;28;19924;-86
2022/09/22 02:23:25;;;;;;;;;;;;;;;11.68;100.00;98615.56;5072653;28;19928;-87
2022/09/22 02:25:51;;;;;;;;;;;;;;;11.65;100.00;98610.72;5078849;28;20033;-86
2022/09/22 02:28:19;;;;;;;;;;;;;;;11.37;100.00;98611.78;5060878;28;20019;-86
2022/09/22 02:30:46;;;;;;;;;;;;;;;11.50;100.00;98613.25;5076299;28;20011;-87
2022/09/22 02:33:14;;;;;;;;;;;;;;;11.63;100.00;98602.16;5073914;28;19933;-86
2022/09/22 02:35:46;;;;;;;;;;;;;;;11.71;100.00;98599.84;5067351;28;19930;-87
2022/09/22 02:38:15;;;;;;;;;;;;;;;11.69;100.00;98606.50;5070154;28;20342;-87
2022/09/22 02:40:46;;;;;;;;;;;;;;;11.41;100.00;98604.06;5052916;28;19950;-86
2022/09/22 02:43:14;;;;;;;;;;;;;;;11.45;100.00;98599.84;5048985;28;20414;-86
2022/09/22 02:45:45;;;;;;;;;;;;;;;11.49;100.00;98607.09;5063295;28;19925;-88
2022/09/22 02:48:14;;;;;;;;;;;;;;;11.44;100.00;98607.03;5064298;28;20544;-87
2022/09/22 02:50:42;;;;;;;;;;;;;;;11.09;100.00;98604.75;5047361;28;20150;-86
2022/09/22 02:53:11;;;;;;;;;;;;;;;11.08;100.00;98610.38;5069464;28;20027;-87
2022/09/22 02:55:38;;;;;;;;;;;;;;;11.33;100.00;98607.97;5073695;28;19928;-88
2022/09/22 02:58:05;;;;;;;;;;;;;;;11.40;100.00;98619.28;5049563;28;19928;-88
2022/09/22 03:00:31;;;;;;;;;;;;;;;11.27;100.00;98608.97;5051073;28;19967;-87
2022/09/22 03:02:58;;;;;;;;;;;;;;;11.13;100.00;98605.06;5066964;28;19924;-86
2022/09/22 03:05:25;;;;;;;;;;;;;;;10.91;100.00;98598.91;5079716;28;19924;-87
2022/09/22 03:07:52;;;;;;;;;;;;;;;10.47;100.00;98601.53;5056039;28;20603;-86
2022/09/22 03:10:19;;;;;;;;;;;;;;;10.69;100.00;98610.41;5071439;28;19935;-87
2022/09/22 03:12:45;;;;;;;;;;;;;;;10.83;100.00;98600.97;5046446;28;20020;-86
2022/09/22 03:15:13;;;;;;;;;;;;;;;10.57;100.00;98607.03;5063336;28;19997;-87
2022/09/22 03:17:40;;;;;;;;;;;;;;;10.15;100.00;98606.66;5053729;28;19966;-87
2022/09/22 03:20:10;;;;;;;;;;;;;;;10.18;100.00;98605.38;5073793;28;19929;-87
2022/09/22 03:22:37;;;;;;;;;;;;;;;10.64;100.00;98602.31;5052107;28;20642;-87
2022/09/22 03:25:06;;;;;;;;;;;;;;;10.67;100.00;98604.50;5065554;28;19974;-87
2022/09/22 03:27:32;;;;;;;;;;;;;;;10.97;100.00;98597.94;5066678;28;20007;-88
2022/09/22 03:29:58;;;;;;;;;;;;;;;11.17;100.00;98600.84;5075890;28;20034;-85
2022/09/22 03:32:25;;;;;;;;;;;;;;;11.01;100.00;98599.06;5053292;28;19935;-86
2022/09/22 03:34:51;;;;;;;;;;;;;;;11.02;100.00;98601.47;5055302;28;20627;-86
2022/09/22 03:37:17;;;;;;;;;;;;;;;11.22;100.00;98596.38;5062213;28;20334;-88
2022/09/22 03:39:44;;;;;;;;;;;;;;;11.27;100.00;98598.28;5066635;28;19932;-87
2022/09/22 03:42:11;;;;;;;;;;;;;;;11.28;100.00;98603.41;5065889;28;19931;-87
2022/09/22 03:44:38;;;;;;;;;;;;;;;11.36;100.00;98599.44;5075674;28;20656;-86
2022/09/22 03:47:04;;;;;;;;;;;;;;;11.40;100.00;98603.25;5077507;28;19998;-89
2022/09/22 03:49:31;;;;;;;;;;;;;;;11.21;100.00;98604.63;5065330;28;20620;-87
2022/09/22 03:51:57;;;;;;;;;;;;;;;11.13;100.00;98602.41;5074704;28;20580;-88
2022/09/22 03:54:24;;;;;;;;;;;;;;;11.07;100.00;98598.88;5071977;28;20431;-87
2022/09/22 03:56:50;;;;;;;;;;;;;;;10.65;100.00;98603.09;5058178;28;19928;-87
2022/09/22 03:59:18;;;;;;;;;;;;;;;10.87;100.00;98598.59;5050827;28;19924;-86
2022/09/22 04:01:45;;;;;;;;;;;;;;;10.85;100.00;98592.72;5076099;28;20022;-87
2022/09/22 04:04:11;;;;;;;;;;;;;;;10.97;100.00;98596.06;5083272;28;20018;-88
2022/09/22 04:06:37;;;;;;;;;;;;;;;10.93;100.00;98596.78;5084555;28;20547;-87
2022/09/22 04:09:04;;;;;;;;;;;;;;;10.84;100.00;98593.75;5074376;28;20604;-87
2022/09/22 04:11:30;;;;;;;;;;;;;;;10.44;100.00;98599.34;5079362;28;20362;-87
2022/09/22 04:13:58;;;;;;;;;;;;;;;10.48;100.00;98599.69;5067454;28;19931;-86
2022/09/22 04:16:27;;;;;;;;;;;;;;;10.76;100.00;98597.69;5062747;28;19939;-86
2022/09/22 04:18:53;;;;;;;;;;;;;;;10.96;100.00;98601.66;5065521;28;19929;-87
2022/09/22 04:21:20;;;;;;;;;;;;;;;11.10;100.00;98603.72;5069202;28;19975;-87
2022/09/22 04:23:46;;;;;;;;;;;;;;;11.02;100.00;98604.13;5082068;28;19978;-87
2022/09/22 04:26:12;;;;;;;;;;;;;;;11.08;100.00;98589.00;5071837;28;20019;-86
2022/09/22 04:28:39;;;;;;;;;;;;;;;10.55;100.00;98594.97;5084966;28;20023;-85
2022/09/22 04:31:05;;;;;;;;;;;;;;;10.83;100.00;98597.50;5074384;28;19982;-87
2022/09/22 04:33:33;;;;;;;;;;;;;;;10.64;100.00;98594.31;5075074;28;20016;-86
2022/09/22 04:35:59;;;;;;;;;;;;;;;10.40;100.00;98600.88;5058376;28;20027;-87
2022/09/22 04:38:25;;;;;;;;;;;;;;;10.07;100.00;98596.34;5073662;28;19924;-88
2022/09/22 04:40:52;;;;;;;;;;;;;;;10.51;100.00;98600.00;5071332;28;19950;-86
2022/09/22 04:43:19;;;;;;;;;;;;;;;10.47;100.00;98600.72;5058227;28;19924;-86
2022/09/22 04:45:47;;;;;;;;;;;;;;;10.40;100.00;98608.13;5066533;28;19928;-86
2022/09/22 04:48:13;;;;;;;;;;;;;;;10.43;100.00;98600.41;5076199;28;19974;-85
2022/09/22 04:50:41;;;;;;;;;;;;;;;10.56;100.00;98602.72;5060917;28;19924;-86
2022/09/22 04:53:08;;;;;;;;;;;;;;;10.10;100.00;98603.06;5050235;28;20023;-86
2022/09/22 04:55:34;;;;;;;;;;;;;;;10.06;100.00;98605.41;5064566;28;19924;-86
2022/09/22 04:58:01;;;;;;;;;;;;;;;10.11;100.00;98602.84;5061324;28;19924;-85
2022/09/22 05:00:28;;;;;;;;;;;;;;;9.92;100.00;98595.28;5048669;28;20031;-87
2022/09/22 05:02:55;;;;;;;;;;;;;;;10.23;100.00;98595.56;5061749;28;19928;-86
2022/09/22 05:05:22;;;;;;;;;;;;;;;9.84;100.00;98593.03;5076695;28;19924;-87
2022/09/22 05:07:51;;;;;;;;;;;;;;;9.71;100.00;98602.97;5080142;28;20030;-86
2022/09/22 05:10:17;;;;;;;;;;;;;;;9.43;100.00;98608.31;5068292;28;19931;-86
2022/09/22 05:12:44;;;;;;;;;;;;;;;8.76;100.00;98617.09;5075995;28;20618;-85
2022/09/22 05:15:12;;;;;;;;;;;;;;;8.76;100.00;98617.09;5065378;28;20035;-85
2022/09/22 05:17:44;;;;;;;;;;;;;;;8.47;100.00;98609.00;5090775;28;19923;-87
2022/09/22 05:20:11;;;;;;;;;;;;;;;8.55;100.00;98613.16;5073104;28;19929;-87
2022/09/22 05:22:38;;;;;;;;;;;;;;;8.40;100.00;98621.63;5066937;28;20022;-86
2022/09/22 05:25:07;;;;;;;;;;;;;;;8.57;100.00;98630.50;5062677;28;19928;-86
2022/09/22 05:27:33;;;;;;;;;;;;;;;8.39;100.00;98619.97;5078836;28;19932;-86
2022/09/22 05:29:59;;;;;;;;;;;;;;;8.37;100.00;98630.06;5081363;28;20427;-86
2022/09/22 05:32:26;;;;;;;;;;;;;;;8.37;100.00;98632.72;5077322;28;20663;-87
2022/09/22 05:34:52;;;;;;;;;;;;;;;8.60;100.00;98623.94;5072281;28;19925;-86
2022/09/22 05:37:18;;;;;;;;;;;;;;;8.97;100.00;98635.13;5083264;28;20011;-86
2022/09/22 05:39:45;;;;;;;;;;;;;;;9.47;100.00;98625.44;5068600;28;19963;-86
2022/09/22 05:42:12;;;;;;;;;;;;;;;9.61;100.00;98626.78;5061236;28;20457;-87
2022/09/22 05:44:39;;;;;;;;;;;;;;;10.03;100.00;98629.09;5046718;28;19935;-86
2022/09/22 05:47:05;;;;;;;;;;;;;;;10.03;100.00;98640.56;5074107;28;19982;-86
2022/09/22 05:49:31;;;;;;;;;;;;;;;10.15;100.00;98635.22;5067630;28;19928;-85
2022/09/22 05:51:58;;;;;;;;;;;;;;;9.34;100.00;98636.41;5076583;28;19924;-86
2022/09/22 05:54:24;;;;;;;;;;;;;;;8.42;100.00;98635.50;5064930;28;19925;-86
2022/09/22 05:56:50;;;;;;;;;;;;;;;8.21;100.00;98641.34;5069097;28;19924;-86
2022/09/22 05:59:18;;;;;;;;;;;;;;;8.16;100.00;98641.25;5065915;28;19931;-86
2022/09/22 06:01:44;;;;;;;;;;;;;;;8.72;100.00;98642.56;5060060;28;19932;-86
2022/09/22 06:04:11;;;;;;;;;;;;;;;9.08;100.00;98648.41;5064359;28;19925;-87
2022/09/22 06:06:37;;;;;;;;;;;;;;;9.55;100.00;98643.75;5082094;28;19971;-86
2022/09/22 06:09:03;;;;;;;;;;;;;;;9.92;100.00;98643.31;5084711;28;20027;-86
2022/09/22 06:11:30;;;;;;;;;;;;;;;9.98;100.00;98637.84;5063925;28;19931;-86
2022/09/22 06:13:56;;;;;;;;;;;;;;;9.96;100.00;98647.94;5052738;28;19924;-86
2022/09/22 06:16:24;;;;;;;;;;;;;;;9.94;100.00;98641.22;5070948;28;20280;-88
2022/09/22 06:18:50;;;;;;;;;;;;;;;10.22;100.00;98643.84;5079428;28;20710;-85
2022/09/22 06:21:17;;;;;;;;;;;;;;;10.50;100.00;98643.78;5059220;28;19928;-86
2022/09/22 06:23:44;;;;;;;;;;;;;;;10.61;100.00;98632.19;5081364;28;19935;-86
2022/09/22 06:26:10;;;;;;;;;;;;;;;10.75;100.00;98633.47;5065906;28;19925;-85
2022/09/22 06:28:38;;;;;;;;;;;;;;;10.75;100.00;98633.47;5078456;28;21256;-86
2022/09/22 06:31:05;;;;;;;;;;;;;;;10.58;100.00;98632.69;5076208;28;19924;-85
2022/09/22 06:33:34;;;;;;;;;;;;;;;10.81;100.00;98632.47;5076596;28;20442;-86
2022/09/22 06:36:01;;;;;;;;;;;;;;;10.98;100.00;98636.97;5070917;28;19928;-87
2022/09/22 06:38:30;;;;;;;;;;;;;;;11.05;100.00;98637.59;5062537;28;19929;-87
2022/09/22 06:40:59;;;;;;;;;;;;;;;10.52;100.00;98638.19;5064480;28;19971;-85
2022/09/22 06:43:26;;;;;;;;;;;;;;;10.45;100.00;98633.03;5055621;28;19982;-86
2022/09/22 06:45:52;;;;;;;;;;;;;;;10.67;100.00;98635.75;5072386;28;20046;-85
2022/09/22 06:48:20;;;;;;;;;;;;;;;10.88;100.00;98631.47;5074837;28;19924;-86
2022/09/22 06:50:51;;;;;;;;;;;;;;;10.50;100.00;98634.94;5064679;28;19935;-86
2022/09/22 06:53:19;;;;;;;;;;;;;;;10.29;100.00;98645.31;5075444;28;20016;-86
2022/09/22 06:55:45;;;;;;;;;;;;;;;10.37;100.00;98633.41;5069123;28;20595;-85
2022/09/22 06:58:12;;;;;;;;;;;;;;;10.62;100.00;98636.47;5079110;28;19985;-85
2022/09/22 07:00:40;;;;;;;;;;;;;;;10.65;100.00;98641.31;5086242;28;19934;-86
2022/09/22 07:03:08;;;;;;;;;;;;;;;10.60;100.00;98638.59;5066798;28;20568;-84
2022/09/22 07:05:35;;;;;;;;;;;;;;;10.64;100.00;98636.25;5065652;28;20015;-87
2022/09/22 07:08:04;;;;;;;;;;;;;;;10.58;100.00;98637.22;5073451;28;19967;-88
2022/09/22 07:10:30;;;;;;;;;;;;;;;10.74;100.00;98634.50;5092969;28;19976;-86
2022/09/22 07:12:59;;;;;;;;;;;;;;;10.83;100.00;98641.03;5064023;28;20018;-86
2022/09/22 07:15:28;;;;;;;;;;;;;;;11.04;100.00;98630.63;5080854;28;20646;-85
2022/09/22 07:17:54;;;;;;;;;;;;;;;11.13;100.00;98639.84;5048169;28;19928;-87
2022/09/22 07:20:20;;;;;;;;;;;;;;;11.11;100.00;98636.59;5055283;28;19925;-85
2022/09/22 07:22:47;;;;;;;;;;;;;;;11.09;100.00;98636.84;5067386;28;19988;-86
2022/09/22 07:25:15;;;;;;;;;;;;;;;10.96;100.00;98628.38;5080229;28;19967;-89
2022/09/22 07:27:41;;;;;;;;;;;;;;;11.07;100.00;98638.16;5082500;28;19981;-86
2022/09/22 07:30:09;;;;;;;;;;;;;;;11.00;100.00;98635.66;5067294;28;19928;-87
2022/09/22 07:32:35;;;;;;;;;;;;;;;10.41;100.00;98631.88;5065375;28;19924;-86
2022/09/22 07:35:02;;;;;;;;;;;;;;;10.16;100.00;98644.81;5069753;28;19935;-86
2022/09/22 07:37:31;;;;;;;;;;;;;;;9.83;100.00;98642.91;5054407;28;19924;-85
2022/09/22 07:39:59;;;;;;;;;;;;;;;10.13;100.00;98640.78;5069001;28;19929;-85
2022/09/22 07:42:27;;;;;;;;;;;;;;;10.46;100.00;98637.28;5070114;28;19928;-85
2022/09/22 07:50:21;;;;;;;;;;;;;;;11.11;100.00;98640.06;5067174;28;19924;-86
2022/09/22 07:52:50;;;;;;;;;;;;;;;10.67;100.00;98641.91;5072219;28;19932;-89
2022/09/22 07:55:16;;;;;;;;;;;;;;;10.48;100.00;98634.38;5048894;28;19964;-86
2022/09/22 07:57:45;;;;;;;;;;;;;;;9.84;100.00;98638.41;5065285;28;20014;-85
2022/09/22 08:00:12;;;;;;;;;;;;;;;9.63;100.00;98650.53;5067520;28;19928;-86
2022/09/22 08:02:39;;;;;;;;;;;;;;;9.44;100.00;98646.47;5081961;28;20497;-87
2022/09/22 08:05:07;;;;;;;;;;;;;;;9.51;100.00;98647.09;5090619;28;19924;-87
2022/09/22 08:07:36;;;;;;;;;;;;;;;9.56;100.00;98648.00;5081462;28;19928;-86
2022/09/22 08:10:02;;;;;;;;;;;;;;;9.34;100.00;98655.06;5080168;28;19976;-86
2022/09/22 08:12:28;;;;;;;;;;;;;;;9.61;100.00;98645.44;5090738;28;19924;-86
2022/09/22 08:14:57;;;;;;;;;;;;;;;10.07;100.00;98639.06;5084560;28;20415;-85
2022/09/22 08:17:23;;;;;;;;;;;;;;;10.31;100.00;98650.41;5074936;28;20015;-87
2022/09/22 08:19:49;;;;;;;;;;;;;;;10.27;100.00;98647.41;5056568;28;19929;-86
2022/09/22 08:22:16;;;;;;;;;;;;;;;10.18;100.00;98645.41;5069426;28;19931;-86
2022/09/22 08:24:44;;;;;;;;;;;;;;;10.09;100.00;98646.81;5051863;28;19928;-87
2022/09/22 08:27:10;;;;;;;;;;;;;;;10.32;100.00;98645.88;5072546;28;20536;-87
2022/09/22 08:29:37;;;;;;;;;;;;;;;10.55;100.00;98648.38;5071508;28;20414;-85
2022/09/22 08:32:05;;;;;;;;;;;;;;;10.54;100.00;98647.56;5053649;28;19928;-85
2022/09/22 08:34:31;;;;;;;;;;;;;;;10.35;100.00;98642.72;5071458;28;19925;-87
2022/09/22 08:36:57;;;;;;;;;;;;;;;10.13;100.00;98653.28;5074612;28;19939;-86
2022/09/22 08:39:24;;;;;;;;;;;;;;;10.28;100.00;98649.03;5061229;28;19924;-87
2022/09/22 08:42:04;;;;;;;;;;;;;;;10.59;100.00;98636.97;5070940;28;19968;-88
2022/09/22 08:44:34;;;;;;;;;;;;;;;10.94;100.00;98635.84;5080284;28;19928;-90
2022/09/22 08:47:00;;;;;;;;;;;;;;;10.77;100.00;98638.53;5056124;28;19928;-86
2022/09/22 08:52:19;;;;;;;;;;;;;;;10.72;100.00;98638.47;5060793;28;19949;-86
2022/09/22 08:54:46;;;;;;;;;;;;;;;10.69;100.00;98630.97;5076497;28;19967;-85
2022/09/22 08:57:21;;;;;;;;;;;;;;;10.91;100.00;98631.00;5076654;28;19924;-86
2022/09/22 08:59:50;;;;;;;;;;;;;;;10.86;100.00;98633.59;5080120;28;19935;-86
2022/09/22 09:02:32;;;;;;;;;;;;;;;10.84;100.00;98623.97;5067413;28;19996;-86
2022/09/22 09:05:25;;;;;;;;;;;;;;;10.96;100.00;98625.69;5068062;28;20391;-88
2022/09/22 09:07:59;;;;;;;;;;;;;;;11.10;100.00;98621.63;5089535;28;19924;-87
2022/09/22 09:10:41;;;;;;;;;;;;;;;11.16;100.00;98617.94;5071540;28;19955;-85
2022/09/22 09:13:15;;;;;;;;;;;;;;;11.23;100.00;98621.25;5075151;28;19935;-85
2022/09/22 09:15:47;;;;;;;;;;;;;;;11.15;100.00;98610.97;5085462;28;20310;-87
2022/09/22 09:18:15;;;;;;;;;;;;;;;11.17;100.00;98616.91;5087604;28;19959;-87
2022/09/22 09:20:45;;;;;;;;;;;;;;;11.27;100.00;98614.31;5064807;28;19924;-86
2022/09/22 09:23:14;;;;;;;;;;;;;;;11.44;100.00;98619.59;5071113;28;20697;-86
2022/09/22 09:25:41;;;;;;;;;;;;;;;11.48;100.00;98615.38;5063599;28;20098;-86
2022/09/22 09:28:12;;;;;;;;;;;;;;;11.61;100.00;98606.94;5079380;28;19934;-86
2022/09/22 09:30:41;;;;;;;;;;;;;;;11.71;100.00;98609.75;5065547;28;19935;-87
2022/09/22 09:33:14;;;;;;;;;;;;;;;11.79;100.00;98607.41;5073694;28;20031;-86
2022/09/22 09:35:44;;;;;;;;;;;;;;;11.82;100.00;98604.22;5059356;28;19930;-85
2022/09/22 09:38:14;;;;;;;;;;;;;;;11.90;100.00;98598.44;5088445;28;20305;-86
2022/09/22 09:40:40;;;;;;;;;;;;;;;11.89;100.00;98599.47;5067950;28;20606;-86
2022/09/22 09:43:07;;;;;;;;;;;;;;;12.01;100.00;98598.53;5050551;28;19924;-86
2022/09/22 09:45:37;;;;;;;;;;;;;;;12.04;100.00;98598.00;5056139;28;19929;-87
2022/09/22 09:48:12;;;;;;;;;;;;;;;12.15;100.00;98600.50;5071583;28;19928;-86
2022/09/22 09:50:38;;;;;;;;;;;;;;;12.32;100.00;98598.47;5052298;28;19929;-85
2022/09/22 09:53:05;;;;;;;;;;;;;;;12.52;100.00;98600.50;5057512;28;20399;-86
2022/09/22 09:55:34;;;;;;;;;;;;;;;12.67;100.00;98592.56;5070607;28;19924;-87
2022/09/22 09:58:05;;;;;;;;;;;;;;;12.67;100.00;98597.91;5068275;28;19925;-87
2022/09/22 10:00:31;;;;;;;;;;;;;;;12.54;100.00;98595.69;5080131;28;19978;-88
2022/09/22 10:03:04;;;;;;;;;;;;;;;12.52;100.00;98595.16;5068243;28;19932;-87
2022/09/22 10:05:36;;;;;;;;;;;;;;;12.59;100.00;98584.19;5066692;28;19973;-86
2022/09/22 10:08:03;;;;;;;;;;;;;;;12.75;100.00;98588.59;5062873;28;19959;-85
2022/09/22 10:10:32;;;;;;;;;;;;;;;12.96;100.00;98584.94;5090981;28;20310;-86
2022/09/22 10:13:15;;;;;;;;;;;;;;;12.97;100.00;98583.84;5084351;28;19959;-87
2022/09/22 10:15:43;;;;;;;;;;;;;;;13.05;100.00;98577.19;5079838;28;19924;-87
2022/09/22 10:18:28;;;;;;;;;;;;;;;13.06;100.00;98579.59;5068586;28;20008;-86
2022/09/22 10:21:01;;;;;;;;;;;;;;;13.16;100.00;98582.34;5059113;28;19959;-89
2022/09/22 10:23:30;;;;;;;;;;;;;;;13.28;100.00;98572.19;5075920;28;19932;-86
2022/09/22 10:26:13;;;;;;;;;;;;;;;13.63;100.00;98582.19;5074623;28;19928;-86
2022/09/22 10:28:40;;;;;;;;;;;;;;;13.55;100.00;98579.25;5067875;28;19924;-89
2022/09/22 10:31:18;;;;;;;;;;;;;;;13.71;100.00;98568.25;5069435;28;19982;-86
2022/09/22 10:33:53;;;;;;;;;;;;;;;13.97;100.00;98572.56;5085787;28;19924;-88
2022/09/22 10:36:19;;;;;;;;;;;;;;;13.88;100.00;98565.31;5062861;28;19935;-90
2022/09/22 10:38:45;;;;;;;;;;;;;;;14.20;100.00;98559.69;5065264;28;19975;-86
2022/09/22 10:41:13;;;;;;;;;;;;;;;14.28;100.00;98557.25;5053569;28;19960;-86
2022/09/22 10:43:44;;;;;;;;;;;;;;;14.39;100.00;98560.75;5076274;28;20367;-86
2022/09/22 10:46:34;;;;;;;;;;;;;;;14.36;100.00;98555.94;5075447;28;19928;-85
2022/09/22 10:49:04;;;;;;;;;;;;;;;14.24;100.00;98560.72;5038612;28;19934;-86
2022/09/22 10:51:37;;;;;;;;;;;;;;;14.20;99.72;98557.81;5071911;28;19975;-87
2022/09/22 10:54:12;;;;;;;;;;;;;;;14.29;100.00;98550.00;5059081;28;20288;-87
2022/09/22 10:56:39;;;;;;;;;;;;;;;14.34;99.11;98553.50;5061688;28;19932;-87
2022/09/22 10:59:15;;;;;;;;;;;;;;;14.30;96.21;98556.94;5074139;28;20431;-87
2022/09/22 11:01:47;;;;;;;;;;;;;;;14.41;95.84;98553.22;5074593;28;19928;-86
2022/09/22 11:04:24;;;;;;;;;;;;;;;14.48;97.31;98541.09;5055738;28;20011;-86
2022/09/22 11:12:42;;;;;;;;;;;;;;;14.59;93.03;98539.19;5065728;28;20520;-87
2022/09/22 11:15:32;;;;;;;;;;;;;;;14.58;93.05;98542.97;5078033;28;19932;-82
2022/09/22 11:18:05;;;;;;;;;;;;;;;14.57;95.95;98549.44;5081818;28;19939;-84
2022/09/22 11:20:35;;;;;;;;;;;;;;;14.69;98.80;98543.75;5076433;28;20496;-82
2022/09/22 11:23:16;;;;;;;;;;;;;;;14.85;97.84;98532.66;5076650;28;19928;-82
2022/09/22 11:25:49;;;;;;;;;;;;;;;15.05;100.00;98532.56;5073338;28;19928;-84
2022/09/22 11:28:23;;;;;;;;;;;;;;;14.99;93.41;98535.56;5058883;28;19928;-83
2022/09/22 11:30:51;;;;;;;;;;;;;;;14.84;93.89;98530.25;5080312;28;19928;-82
2022/09/22 11:33:26;;;;;;;;;;;;;;;14.96;92.40;98531.53;5064148;28;19930;-84
2022/09/22 11:36:10;;;;;;;;;;;;;;;14.98;96.04;98531.25;5082029;28;19934;-81
2022/09/22 11:38:46;;;;;;;;;;;;;;;15.17;98.80;98528.72;5067916;28;20023;-81
2022/09/22 11:41:21;;;;;;;;;;;;;;;15.43;92.61;98528.31;5061343;28;19924;-81
2022/09/22 11:44:03;;;;;;;;;;;;;;;15.43;90.53;98516.75;5081769;28;19924;-82
2022/09/22 11:46:37;;;;;;;;;;;;;;;15.24;92.15;98518.47;5080871;28;19924;-81
2022/09/22 11:49:10;;;;;;;;;;;;;;;15.43;91.07;98514.06;5073614;28;20002;-81
2022/09/22 11:51:44;;;;;;;;;;;;;;;15.51;88.89;98511.59;5052328;28;19968;-82
2022/09/22 11:54:22;;;;;;;;;;;;;;;15.58;89.90;98508.59;5074794;28;20010;-81
2022/09/22 11:56:50;;;;;;;;;;;;;;;15.72;91.37;98519.53;5066966;28;19928;-85
2022/09/22 11:59:30;;;;;;;;;;;;;;;15.75;92.25;98506.31;5068735;28;19929;-87
2022/09/22 12:02:02;;;;;;;;;;;;;;;15.72;89.44;98504.16;5062351;28;20319;-86
2022/09/22 12:04:33;;;;;;;;;;;;;;;15.52;96.11;98505.16;5053759;28;19963;-85
2022/09/22 12:07:02;;;;;;;;;;;;;;;15.76;98.11;98497.13;5065050;28;20007;-86
2022/09/22 12:09:32;;;;;;;;;;;;;;;15.85;94.54;98497.34;5081243;28;20022;-86
2022/09/22 12:11:59;;;;;;;;;;;;;;;16.09;90.87;98493.59;5073395;28;19939;-85
2022/09/22 12:14:26;;;;;;;;;;;;;;;15.94;86.28;98492.94;5072355;28;19924;-85
2022/09/22 12:16:58;;;;;;;;;;;;;;;15.95;85.36;98498.06;5070724;28;20023;-87
2022/09/22 12:19:30;;;;;;;;;;;;;;;15.85;84.67;98484.66;5083189;28;20592;-85
2022/09/22 12:22:04;;;;;;;;;;;;;;;15.96;87.48;98488.09;5056977;28;19928;-86
2022/09/22 12:24:30;;;;;;;;;;;;;;;16.01;84.77;98491.53;5069309;28;20527;-88
2022/09/22 12:26:57;;;;;;;;;;;;;;;16.25;82.30;98480.00;5072940;28;19946;-87
2022/09/22 12:29:26;;;;;;;;;;;;;;;16.30;83.39;98488.03;5072477;28;19925;-86
2022/09/22 12:31:54;;;;;;;;;;;;;;;16.38;83.09;98479.31;5065664;28;19955;-86
2022/09/22 12:34:22;;;;;;;;;;;;;;;16.25;83.74;98486.16;5069374;28;19924;-86
2022/09/22 12:36:51;;;;;;;;;;;;;;;16.16;88.03;98472.53;5064490;28;20322;-87
2022/09/22 12:39:19;;;;;;;;;;;;;;;16.54;83.87;98478.03;5086671;28;19978;-93
2022/09/22 12:41:48;;;;;;;;;;;;;;;16.44;87.99;98472.75;5068345;28;19925;-89
2022/09/22 12:44:19;;;;;;;;;;;;;;;16.42;84.89;98470.38;5075876;28;19982;-89
2022/09/22 12:46:47;;;;;;;;;;;;;;;16.44;81.62;98464.66;5073192;28;19932;-89
2022/09/22 12:49:16;;;;;;;;;;;;;;;16.14;84.60;98468.50;5080502;28;20502;-87
2022/09/22 12:51:42;;;;;;;;;;;;;;;15.98;88.63;98464.34;5070698;28;20023;-88
2022/09/22 12:54:28;;;;;;;;;;;;;;;16.15;85.94;98462.03;5079899;28;20019;-87
2022/09/22 12:56:58;;;;;;;;;;;;;;;15.93;88.20;98456.34;5055328;28;19954;-86
2022/09/22 12:59:43;;;;;;;;;;;;;;;15.90;90.41;98457.72;5073949;28;19925;-86
2022/09/22 13:02:16;;;;;;;;;;;;;;;15.88;88.82;98462.56;5071523;28;20350;-89
2022/09/22 13:05:04;;;;;;;;;;;;;;;15.92;86.21;98463.59;5071410;28;19925;-86